Time;durP1;ratioP1;P1;durP2;ratioP2;P2;SDS_P1;SDS_P2;PMS_P1;PMS_P2;Temp;Humidity;BMP_temperature;BMP_pressure;BME280_temperature;BME280_humidity;BME280_pressure;Samples;Min_cycle;Max_cycle;Signal;HPM_P1;HPM_P2
2021/12/20 00:00:15;;;;;;;14.63;13.70;;;;;;;2.96;65.87;92126.47;5069508;28;20188;-80
2021/12/20 00:02:42;;;;;;;14.03;13.03;;;;;;;3.02;65.79;92140.94;5089520;28;20227;-77
2021/12/20 00:05:08;;;;;;;13.90;12.90;;;;;;;2.97;65.53;92151.25;5087775;28;20193;-78
2021/12/20 00:07:34;;;;;;;15.20;14.30;;;;;;;2.99;66.07;92146.59;5069255;28;20205;-78
2021/12/20 00:09:59;;;;;;;15.03;14.13;;;;;;;2.95;67.06;92154.06;5069375;28;20213;-77
2021/12/20 00:12:25;;;;;;;14.00;12.77;;;;;;;2.83;66.40;92144.91;5069250;28;20209;-78
2021/12/20 00:14:50;;;;;;;13.70;12.70;;;;;;;2.70;67.51;92133.19;5069943;28;20244;-78
2021/12/20 00:17:15;;;;;;;14.43;13.53;;;;;;;2.69;67.24;92133.44;5069170;28;20225;-77
2021/12/20 00:19:41;;;;;;;15.37;14.47;;;;;;;2.81;67.54;92163.19;5070427;28;20712;-78
2021/12/20 00:22:06;;;;;;;13.73;12.97;;;;;;;2.83;67.03;92155.22;5069659;28;20711;-77
2021/12/20 00:24:32;;;;;;;12.73;12.03;;;;;;;2.95;67.59;92155.84;5069743;28;20853;-77
2021/12/20 00:26:57;;;;;;;13.67;12.47;;;;;;;2.84;67.72;92149.81;5068592;28;20619;-77
2021/12/20 00:29:23;;;;;;;15.10;14.27;;;;;;;2.83;67.20;92150.06;5069184;28;20661;-78
2021/12/20 00:31:48;;;;;;;12.80;12.00;;;;;;;2.77;67.93;92145.88;5068928;28;20235;-78
2021/12/20 00:34:13;;;;;;;13.70;12.90;;;;;;;2.76;67.29;92134.00;5069284;28;20188;-78
2021/12/20 00:36:39;;;;;;;12.73;11.90;;;;;;;2.76;67.38;92134.00;5070277;28;20224;-78
2021/12/20 00:41:49;;;;;;;13.47;12.70;;;;;;;2.70;68.03;92142.72;5070343;28;20228;-79
2021/12/20 00:44:14;;;;;;;14.57;13.73;;;;;;;2.72;67.72;92169.03;5068501;28;20178;-78
2021/12/20 00:46:40;;;;;;;21.60;20.20;;;;;;;2.76;67.26;92160.56;5068219;28;20231;-78
2021/12/20 00:49:05;;;;;;;13.33;12.70;;;;;;;2.71;68.02;92162.28;5068243;28;20193;-77
2021/12/20 00:51:31;;;;;;;13.77;12.97;;;;;;;2.77;68.57;92146.66;5067344;28;20865;-77
2021/12/20 00:53:56;;;;;;;15.33;14.43;;;;;;;2.68;67.83;92147.31;5069668;28;20613;-77
2021/12/20 00:56:22;;;;;;;12.90;12.13;;;;;;;2.56;67.49;92110.63;5066321;28;20312;-77
2021/12/20 00:58:47;;;;;;;12.77;11.83;;;;;;;2.77;66.56;92156.19;5067896;28;20335;-77
2021/12/20 01:01:12;;;;;;;11.93;11.23;;;;;;;2.61;67.02;92136.44;5067614;28;20225;-77
2021/12/20 01:03:38;;;;;;;12.67;11.87;;;;;;;2.76;67.73;92155.41;5067350;28;20203;-77
2021/12/20 01:06:04;;;;;;;12.63;12.03;;;;;;;2.86;66.49;92177.94;5067736;28;20225;-77
2021/12/20 01:08:34;;;;;;;12.30;11.60;;;;;;;2.85;67.61;92163.47;5067864;28;20189;-78
2021/12/20 01:11:00;;;;;;;10.97;10.37;;;;;;;2.90;65.82;92160.94;5077960;28;20232;-77
2021/12/20 01:13:29;;;;;;;11.80;11.07;;;;;;;2.77;65.44;92156.97;5090676;28;20208;-77
2021/12/20 01:15:57;;;;;;;12.40;11.67;;;;;;;2.66;65.15;92150.13;5092165;28;20258;-77
2021/12/20 01:18:23;;;;;;;13.57;12.87;;;;;;;2.88;65.58;92186.97;5091479;28;20185;-77
2021/12/20 01:20:49;;;;;;;12.10;11.47;;;;;;;2.83;65.85;92170.69;5091470;28;20252;-77
2021/12/20 01:23:15;;;;;;;13.10;12.40;;;;;;;2.81;65.43;92172.72;5091759;28;20185;-77
2021/12/20 01:25:41;;;;;;;12.77;12.07;;;;;;;2.32;65.75;92104.19;5090801;28;20216;-77
2021/12/20 01:28:09;;;;;;;12.50;11.80;;;;;;;2.72;65.09;92166.44;5091112;28;20196;-77
2021/12/20 01:30:35;;;;;;;14.67;13.77;;;;;;;2.80;65.56;92194.38;5086714;28;20224;-77
2021/12/20 01:33:00;;;;;;;12.67;12.00;;;;;;;2.71;65.06;92164.88;5070863;28;20220;-77
2021/12/20 01:35:27;;;;;;;12.83;11.80;;;;;;;2.56;65.65;92160.34;5072053;28;20225;-77
2021/12/20 01:37:56;;;;;;;13.40;12.50;;;;;;;2.77;65.52;92187.13;5070188;28;20239;-78
2021/12/20 01:40:22;;;;;;;13.20;12.20;;;;;;;2.71;65.26;92175.19;5071214;28;20674;-77
2021/12/20 01:42:49;;;;;;;15.77;14.87;;;;;;;2.63;65.71;92165.31;5071215;28;20252;-77
2021/12/20 01:45:22;;;;;;;12.60;11.80;;;;;;;2.73;66.16;92175.72;5069385;28;20313;-78
2021/12/20 01:47:51;;;;;;;12.50;11.80;;;;;;;2.82;65.30;92169.91;5072579;28;20178;-78
2021/12/20 01:50:40;;;;;;;13.23;12.43;;;;;;;2.79;65.01;92174.75;5071773;28;20240;-78
2021/12/20 01:53:07;;;;;;;12.93;12.13;;;;;;;2.68;65.63;92153.25;5071408;28;20188;-77
2021/12/20 01:55:32;;;;;;;14.47;13.67;;;;;;;2.72;65.56;92177.53;5071640;28;20743;-77
2021/12/20 01:57:58;;;;;;;13.27;12.47;;;;;;;2.71;65.55;92162.28;5072284;28;20185;-77
2021/12/20 02:00:26;;;;;;;14.13;13.23;;;;;;;2.60;65.93;92150.34;5071442;28;20229;-78
2021/12/20 02:02:58;;;;;;;14.17;13.30;;;;;;;2.67;66.01;92182.63;5069186;28;20202;-79
2021/12/20 02:05:29;;;;;;;11.67;10.87;;;;;;;2.75;66.21;92189.16;5107216;28;20220;-77
2021/12/20 02:08:13;;;;;;;14.77;13.70;;;;;;;2.57;66.67;92171.44;5091150;28;20195;-77
2021/12/20 02:10:39;;;;;;;13.13;12.13;;;;;;;2.62;67.44;92180.00;5090906;28;20219;-78
2021/12/20 02:13:06;;;;;;;13.37;12.47;;;;;;;2.68;67.41;92175.66;5091475;28;20180;-77
2021/12/20 02:15:31;;;;;;;13.80;12.90;;;;;;;2.54;66.69;92141.78;5089638;28;20232;-77
2021/12/20 02:17:58;;;;;;;14.23;13.23;;;;;;;2.62;66.43;92153.44;5091338;28;20223;-78
2021/12/20 02:20:30;;;;;;;14.27;13.23;;;;;;;2.56;66.84;92164.72;5086678;28;20237;-77
2021/12/20 02:22:57;;;;;;;14.83;13.83;;;;;;;2.55;67.40;92188.94;5070500;28;20194;-75
2021/12/20 02:25:24;;;;;;;12.53;11.73;;;;;;;2.74;67.31;92195.34;5071125;28;20240;-77
2021/12/20 02:27:50;;;;;;;12.93;12.03;;;;;;;2.64;67.91;92195.22;5072048;28;20257;-78
2021/12/20 02:38:28;;;;;;;12.77;11.97;;;;;;;2.54;68.02;92164.97;5071275;28;20196;-79
2021/12/20 02:41:05;;;;;;;14.63;13.80;;;;;;;2.65;67.81;92194.19;5077028;28;20228;-78
2021/12/20 02:43:35;;;;;;;13.67;12.97;;;;;;;2.66;68.33;92195.75;5088992;28;20204;-76
2021/12/20 02:46:03;;;;;;;14.27;13.27;;;;;;;2.54;68.27;92188.16;5090660;28;20229;-77
2021/12/20 02:48:29;;;;;;;13.60;12.70;;;;;;;2.68;68.78;92204.00;5089890;28;20192;-77
2021/12/20 02:50:56;;;;;;;14.87;13.90;;;;;;;2.51;69.07;92198.13;5091478;28;20275;-78
2021/12/20 02:53:21;;;;;;;13.43;12.63;;;;;;;2.55;67.84;92214.69;5091218;28;20256;-77
2021/12/20 02:55:47;;;;;;;13.77;12.83;;;;;;;2.59;69.19;92216.53;5122830;28;20232;-78
2021/12/20 02:58:12;;;;;;;13.27;12.47;;;;;;;2.51;68.99;92205.88;5090564;28;20189;-77
2021/12/20 03:00:38;;;;;;;14.47;13.50;;;;;;;2.34;68.52;92187.13;5121548;28;20232;-78
2021/12/20 03:03:03;;;;;;;13.53;12.60;;;;;;;2.56;69.65;92211.09;5090677;28;20249;-77
2021/12/20 03:05:29;;;;;;;13.17;12.37;;;;;;;2.30;68.98;92170.59;5090974;28;20698;-77
2021/12/20 03:07:55;;;;;;;12.63;11.73;;;;;;;2.60;68.85;92207.78;5089801;28;20218;-78
2021/12/20 03:10:22;;;;;;;13.37;12.50;;;;;;;2.51;68.42;92172.38;5090888;28;20276;-78
2021/12/20 03:12:49;;;;;;;12.30;11.57;;;;;;;2.39;68.35;92145.97;5090987;28;20189;-78
2021/12/20 03:15:21;;;;;;;14.20;13.20;;;;;;;2.50;69.44;92191.44;5088919;28;20239;-77
2021/12/20 03:17:46;;;;;;;14.27;13.37;;;;;;;2.62;69.18;92207.56;5090526;28;20189;-78
2021/12/20 03:20:14;;;;;;;13.53;12.70;;;;;;;2.38;68.91;92172.75;5089004;28;20192;-77
2021/12/20 03:22:40;;;;;;;13.17;12.37;;;;;;;2.54;69.58;92202.81;5122300;28;20256;-77
2021/12/20 03:25:06;;;;;;;12.70;11.90;;;;;;;2.49;69.27;92180.34;5090256;28;20223;-77
2021/12/20 03:27:32;;;;;;;12.87;12.10;;;;;;;2.47;69.65;92176.47;5090179;28;20189;-78
2021/12/20 03:29:57;;;;;;;13.00;12.23;;;;;;;2.68;68.66;92199.66;5089680;28;20250;-77
2021/12/20 03:32:22;;;;;;;14.07;12.90;;;;;;;2.75;68.99;92213.13;5069486;28;20220;-77
2021/12/20 03:34:48;;;;;;;13.23;12.43;;;;;;;2.32;69.54;92174.47;5067885;28;20178;-77
2021/12/20 03:37:14;;;;;;;13.97;13.17;;;;;;;2.59;69.20;92203.66;5088361;28;20224;-77
2021/12/20 03:39:39;;;;;;;13.63;12.73;;;;;;;2.40;68.99;92160.41;5090695;28;20203;-78
2021/12/20 03:42:05;;;;;;;12.10;11.30;;;;;;;2.62;68.72;92192.09;5121741;28;20255;-77
2021/12/20 03:44:37;;;;;;;11.90;11.00;;;;;;;2.68;68.32;92193.69;5089962;28;20187;-77
2021/12/20 03:47:03;;;;;;;14.83;13.83;;;;;;;2.68;68.08;92219.47;5121374;28;20221;-77
2021/12/20 03:49:28;;;;;;;13.00;12.10;;;;;;;2.68;67.24;92185.97;5089805;28;20239;-77
2021/12/20 03:51:54;;;;;;;14.17;13.30;;;;;;;2.82;67.56;92205.97;5120923;28;20236;-77
2021/12/20 03:54:19;;;;;;;14.00;13.17;;;;;;;2.68;67.53;92211.75;5089489;28;20184;-77
2021/12/20 03:56:46;;;;;;;14.90;13.73;;;;;;;2.56;67.73;92180.97;5074538;28;20229;-77
2021/12/20 03:59:12;;;;;;;13.40;12.53;;;;;;;2.64;67.18;92193.44;5069532;28;20185;-78
2021/12/20 04:01:39;;;;;;;14.20;13.40;;;;;;;2.75;67.45;92207.19;5069332;28;20221;-77
2021/12/20 04:04:04;;;;;;;12.57;11.67;;;;;;;2.55;68.11;92181.19;5067793;28;20210;-77
2021/12/20 04:06:31;;;;;;;13.00;12.20;;;;;;;2.70;68.43;92192.47;5069088;28;20285;-77
2021/12/20 04:08:57;;;;;;;12.67;11.83;;;;;;;2.71;69.19;92216.41;5069364;28;20199;-77
2021/12/20 04:11:22;;;;;;;14.13;13.13;;;;;;;2.61;69.29;92209.38;5069042;28;20241;-77
2021/12/20 04:13:48;;;;;;;11.47;10.87;;;;;;;2.57;69.06;92202.34;5070069;28;20191;-77
2021/12/20 04:16:13;;;;;;;13.50;12.70;;;;;;;2.58;69.25;92196.19;5069548;28;20233;-77
2021/12/20 04:18:39;;;;;;;13.60;12.70;;;;;;;2.59;69.78;92218.34;5069501;28;20208;-77
2021/12/20 04:21:04;;;;;;;12.47;11.60;;;;;;;2.56;69.47;92227.34;5069881;28;20229;-77
2021/12/20 04:23:30;;;;;;;13.13;12.33;;;;;;;2.63;69.82;92229.75;5101717;28;20216;-76
2021/12/20 04:25:56;;;;;;;12.90;12.20;;;;;;;2.54;68.83;92223.41;5067218;28;20225;-77
2021/12/20 04:28:21;;;;;;;12.27;11.40;;;;;;;2.61;69.20;92244.66;5068873;28;20173;-76
2021/12/20 04:31:07;;;;;;;14.80;13.87;;;;;;;2.37;70.05;92210.59;5067398;28;20232;-77
2021/12/20 04:33:33;;;;;;;13.97;13.07;;;;;;;2.55;71.59;92204.38;5068369;28;20237;-75
2021/12/20 04:35:58;;;;;;;13.53;12.63;;;;;;;2.50;70.03;92181.13;5069707;28;20229;-77
2021/12/20 04:38:27;;;;;;;13.47;12.67;;;;;;;2.65;68.42;92236.19;5066745;28;20854;-77
2021/12/20 04:40:52;;;;;;;12.70;11.90;;;;;;;2.54;68.37;92236.31;5069364;28;20232;-78
2021/12/20 04:43:18;;;;;;;12.73;11.93;;;;;;;2.65;67.47;92245.72;5069578;28;20174;-77
2021/12/20 04:45:43;;;;;;;13.67;12.87;;;;;;;2.67;67.81;92229.00;5072864;28;20221;-84
2021/12/20 04:48:09;;;;;;;12.67;11.97;;;;;;;2.71;68.09;92239.59;5089927;28;20193;-79
2021/12/20 04:50:34;;;;;;;13.67;12.77;;;;;;;2.65;68.20;92253.44;5089673;28;20523;-85
2021/12/20 04:53:00;;;;;;;13.60;12.83;;;;;;;2.56;69.43;92247.16;5092376;28;20193;-82
2021/12/20 04:55:27;;;;;;;13.37;12.63;;;;;;;2.21;68.94;92208.09;5087806;28;20235;-83
2021/12/20 04:57:53;;;;;;;12.13;11.33;;;;;;;2.48;69.81;92245.00;5071971;28;20212;-82
2021/12/20 05:00:22;;;;;;;14.50;13.63;;;;;;;2.43;71.05;92244.94;5071009;28;20252;-85
2021/12/20 05:02:48;;;;;;;14.60;13.70;;;;;;;2.52;71.95;92257.16;5069092;28;20196;-84
2021/12/20 05:05:13;;;;;;;12.23;11.53;;;;;;;2.51;71.24;92257.38;5101771;28;20196;-80
2021/12/20 05:07:40;;;;;;;13.50;12.60;;;;;;;2.56;71.61;92257.47;5072458;28;20200;-86
2021/12/20 05:10:11;;;;;;;12.60;11.70;;;;;;;2.49;70.38;92262.03;5071337;28;20178;-87
2021/12/20 05:12:36;;;;;;;12.73;11.93;;;;;;;2.47;70.75;92259.69;5071800;28;20217;-87
2021/12/20 05:15:02;;;;;;;14.10;13.40;;;;;;;2.17;70.23;92218.06;5069523;28;20319;-78
2021/12/20 05:17:28;;;;;;;13.90;13.03;;;;;;;2.41;69.90;92254.69;5071979;28;20249;-85
2021/12/20 05:19:53;;;;;;;14.87;14.17;;;;;;;2.44;70.15;92262.72;5069921;28;20206;-83
2021/12/20 05:22:18;;;;;;;12.43;11.63;;;;;;;2.32;69.85;92266.44;5071094;28;20217;-87
2021/12/20 05:24:44;;;;;;;13.83;13.03;;;;;;;2.32;71.22;92271.56;5070642;28;20205;-85
2021/12/20 05:27:09;;;;;;;12.23;11.53;;;;;;;2.12;70.97;92246.31;5068299;28;20225;-82
2021/12/20 05:29:35;;;;;;;13.10;12.40;;;;;;;2.07;70.49;92227.44;5070829;28;20265;-84
2021/12/20 05:32:04;;;;;;;12.87;12.17;;;;;;;2.36;70.17;92275.22;5071638;28;20235;-84
2021/12/20 05:34:29;;;;;;;11.73;11.07;;;;;;;2.45;71.06;92284.09;5071614;28;20200;-81
2021/12/20 05:36:54;;;;;;;12.93;12.33;;;;;;;2.53;69.88;92292.22;5088291;28;20224;-82
2021/12/20 05:39:20;;;;;;;13.87;12.87;;;;;;;4.02;83.90;92306.97;5092490;28;20196;-80
2021/12/20 05:41:45;;;;;;;12.23;11.53;;;;;;;2.93;68.62;92309.97;5091686;28;20221;-83
2021/12/20 05:44:11;;;;;;;13.40;12.70;;;;;;;2.60;69.02;92321.16;5087555;28;20189;-84
2021/12/20 05:46:36;;;;;;;12.80;12.10;;;;;;;2.77;70.78;92313.41;5090704;28;20224;-83
2021/12/20 05:49:05;;;;;;;13.33;12.17;;;;;;;2.70;71.40;92289.59;5091403;28;20180;-83
2021/12/20 05:51:30;;;;;;;12.47;11.77;;;;;;;2.36;71.40;92282.94;5089142;28;20221;-83
2021/12/20 05:53:56;;;;;;;14.93;14.13;;;;;;;2.53;69.93;92278.53;5089062;28;20203;-83
2021/12/20 05:56:21;;;;;;;12.67;11.87;;;;;;;2.53;69.95;92317.19;5090276;28;20220;-85
2021/12/20 05:58:47;;;;;;;12.87;12.17;;;;;;;2.56;70.40;92319.28;5089606;28;20197;-82
2021/12/20 06:01:12;;;;;;;14.50;13.73;;;;;;;2.44;70.42;92321.97;5080172;28;20241;-83
2021/12/20 06:03:38;;;;;;;11.60;11.00;;;;;;;2.35;70.79;92302.75;5075406;28;20212;-81
2021/12/20 06:06:03;;;;;;;13.00;12.20;;;;;;;2.31;70.79;92291.41;5069676;28;20240;-82
2021/12/20 06:08:29;;;;;;;11.47;10.87;;;;;;;2.29;70.13;92287.50;5071047;28;20261;-84
2021/12/20 06:10:54;;;;;;;11.73;11.13;;;;;;;2.56;69.70;92317.50;5067405;28;20217;-83
2021/12/20 06:13:19;;;;;;;14.17;13.57;;;;;;;2.46;68.64;92321.75;5070545;28;20211;-85
2021/12/20 06:15:45;;;;;;;14.33;13.63;;;;;;;2.21;68.73;92282.75;5075110;28;20725;-82
2021/12/20 06:18:10;;;;;;;11.87;11.27;;;;;;;2.51;72.10;92291.66;5088016;28;20984;-77
2021/12/20 06:20:36;;;;;;;10.33;9.83;;;;;;;2.40;68.33;92284.81;5089361;28;20221;-78
2021/12/20 06:23:01;;;;;;;11.57;11.07;;;;;;;2.51;66.66;92316.63;5090289;28;20195;-79
2021/12/20 06:25:27;;;;;;;13.17;12.57;;;;;;;2.22;65.94;92261.91;5087980;28;20230;-81
2021/12/20 06:27:53;;;;;;;14.07;13.37;;;;;;;2.62;66.11;92313.19;5120659;28;20220;-80
2021/12/20 06:30:19;;;;;;;13.23;12.53;;;;;;;2.28;67.99;92281.56;5086921;28;20246;-80
2021/12/20 06:32:45;;;;;;;11.03;10.53;;;;;;;2.63;69.08;92335.38;5120433;28;20275;-82
2021/12/20 06:35:13;;;;;;;11.23;10.73;;;;;;;2.55;68.04;92331.38;5088021;28;20220;-77
2021/12/20 06:37:40;;;;;;;11.23;10.67;;;;;;;2.72;67.67;92333.94;5090075;28;20223;-80
2021/12/20 06:40:06;;;;;;;15.47;14.83;;;;;;;2.70;65.09;92328.25;5087828;28;20191;-78
2021/12/20 06:42:31;;;;;;;12.87;12.13;;;;;;;2.60;65.06;92300.53;5090157;28;20185;-76
2021/12/20 06:44:57;;;;;;;12.43;11.87;;;;;;;2.80;65.87;92342.03;5089604;28;20203;-79
2021/12/20 06:47:23;;;;;;;12.37;11.87;;;;;;;2.87;64.58;92341.88;5087866;28;20197;-81
2021/12/20 06:49:49;;;;;;;14.10;13.40;;;;;;;2.72;62.10;92318.47;5088895;28;20184;-82
2021/12/20 06:52:15;;;;;;;10.80;10.30;;;;;;;2.97;63.65;92327.31;5087549;28;20227;-82
2021/12/20 06:54:40;;;;;;;10.00;9.60;;;;;;;2.59;62.91;92283.53;5088788;28;20211;-80
2021/12/20 06:57:06;;;;;;;11.37;10.87;;;;;;;3.13;63.35;92338.59;5119850;28;20219;-80
2021/12/20 06:59:32;;;;;;;10.87;10.47;;;;;;;3.06;64.66;92343.94;5087810;28;20189;-79
2021/12/20 07:01:57;;;;;;;12.13;11.50;;;;;;;2.90;64.74;92351.69;5070741;28;20229;-79
2021/12/20 07:04:23;;;;;;;11.83;11.23;;;;;;;3.16;69.38;92348.41;5068865;28;20197;-81
2021/12/20 07:06:48;;;;;;;11.93;11.33;;;;;;;3.10;66.83;92357.91;5084659;28;20240;-81
2021/12/20 07:09:14;;;;;;;11.70;10.80;;;;;;;3.04;65.54;92347.75;5090363;28;20257;-83
2021/12/20 07:11:41;;;;;;;12.47;11.67;;;;;;;3.29;66.69;92350.66;5084666;28;20252;-80
2021/12/20 07:14:07;;;;;;;11.37;10.77;;;;;;;3.18;67.58;92343.81;5089074;28;20246;-79
2021/12/20 07:16:35;;;;;;;11.93;11.33;;;;;;;3.34;66.67;92348.13;5120757;28;20217;-77
2021/12/20 07:19:02;;;;;;;10.73;10.23;;;;;;;2.85;66.34;92338.75;5089128;28;20200;-77
2021/12/20 07:21:27;;;;;;;12.00;11.03;;;;;;;2.72;66.37;92329.59;5088003;28;20216;-77
2021/12/20 07:23:53;;;;;;;11.43;10.87;;;;;;;2.96;66.20;92341.22;5090811;28;20872;-81
2021/12/20 07:26:19;;;;;;;11.13;10.63;;;;;;;3.03;67.64;92317.84;5087747;28;20232;-81
2021/12/20 07:28:44;;;;;;;12.10;11.33;;;;;;;3.12;67.21;92324.13;5090124;28;20197;-79
2021/12/20 07:31:11;;;;;;;11.73;11.13;;;;;;;3.37;65.71;92339.91;5078794;28;20221;-80
2021/12/20 07:33:37;;;;;;;11.30;10.60;;;;;;;3.35;65.70;92354.84;5068423;28;20189;-81
2021/12/20 07:36:04;;;;;;;10.83;10.33;;;;;;;3.23;64.72;92343.88;5069476;28;20254;-81
2021/12/20 07:38:29;;;;;;;10.70;10.10;;;;;;;3.25;65.08;92367.63;5069471;28;20240;-79
2021/12/20 07:40:55;;;;;;;11.30;10.80;;;;;;;3.39;65.79;92355.94;5077544;28;20228;-81
2021/12/20 07:43:21;;;;;;;11.97;11.27;;;;;;;3.08;64.38;92343.69;5089913;28;20184;-83
2021/12/20 07:45:47;;;;;;;10.33;9.73;;;;;;;3.07;64.87;92352.44;5089612;28;20224;-82
2021/12/20 07:48:14;;;;;;;9.83;9.33;;;;;;;3.04;65.19;92334.88;5088735;28;20196;-80
2021/12/20 07:50:39;;;;;;;10.63;10.17;;;;;;;2.91;65.27;92353.28;5083480;28;20250;-81
2021/12/20 07:53:05;;;;;;;11.77;11.17;;;;;;;3.22;65.96;92355.22;5069822;28;20205;-81
2021/12/20 07:55:30;;;;;;;11.30;10.80;;;;;;;3.26;64.69;92371.75;5069102;28;20259;-82
2021/12/20 07:57:57;;;;;;;10.93;10.43;;;;;;;2.93;64.10;92330.59;5068617;28;20253;-80
2021/12/20 08:00:23;;;;;;;11.07;10.53;;;;;;;3.13;65.06;92351.47;5067850;28;20237;-80
2021/12/20 08:02:49;;;;;;;12.13;11.63;;;;;;;3.10;63.71;92370.00;5069794;28;20216;-81
2021/12/20 08:05:15;;;;;;;10.53;10.13;;;;;;;3.09;64.32;92358.94;5071895;28;20228;-81
2021/12/20 08:07:41;;;;;;;9.40;9.00;;;;;;;3.46;62.96;92364.25;5090637;28;20185;-84
2021/12/20 08:10:08;;;;;;;11.13;10.53;;;;;;;3.43;62.39;92377.63;5088019;28;20293;-81
2021/12/20 08:12:34;;;;;;;11.43;10.93;;;;;;;3.31;61.57;92349.38;5089733;28;20209;-80
2021/12/20 08:15:00;;;;;;;11.90;11.33;;;;;;;3.57;62.07;92358.19;5087667;28;20294;-82
2021/12/20 08:17:25;;;;;;;11.47;10.87;;;;;;;3.47;61.44;92362.47;5068371;28;20200;-82
2021/12/20 08:19:51;;;;;;;10.63;10.13;;;;;;;3.52;61.74;92394.25;5067087;28;20190;-80
2021/12/20 08:22:16;;;;;;;10.90;10.30;;;;;;;3.45;62.63;92349.00;5068374;28;20224;-79
2021/12/20 08:24:42;;;;;;;11.40;10.80;;;;;;;3.46;61.49;92359.09;5069832;28;20588;-81
2021/12/20 08:27:07;;;;;;;11.87;11.37;;;;;;;3.22;62.04;92366.28;5070481;28;21553;-80
2021/12/20 08:29:33;;;;;;;12.07;11.57;;;;;;;3.19;61.51;92353.13;5071871;28;20235;-81
2021/12/20 08:32:01;;;;;;;12.23;11.63;;;;;;;3.15;62.33;92355.38;5071521;28;20236;-80
2021/12/20 08:34:28;;;;;;;12.50;12.00;;;;;;;3.07;60.83;92319.69;5070778;28;20177;-80
2021/12/20 08:36:54;;;;;;;11.13;10.60;;;;;;;3.19;62.45;92337.66;5088329;28;20300;-81
2021/12/20 08:39:19;;;;;;;10.83;10.23;;;;;;;3.33;61.84;92345.78;5092777;28;20173;-82
2021/12/20 08:41:46;;;;;;;15.10;14.37;;;;;;;3.38;61.33;92344.03;5092464;28;20254;-83
2021/12/20 08:44:11;;;;;;;11.67;11.17;;;;;;;2.94;61.33;92316.72;5093167;28;20212;-82
2021/12/20 08:46:37;;;;;;;11.53;10.93;;;;;;;3.53;61.64;92343.44;5091760;28;20229;-82
2021/12/20 08:49:03;;;;;;;12.87;12.13;;;;;;;3.33;58.98;92339.59;5091307;28;20192;-80
2021/12/20 08:51:28;;;;;;;11.23;10.73;;;;;;;3.76;60.85;92361.22;5093493;28;20212;-81
2021/12/20 08:53:53;;;;;;;10.37;9.97;;;;;;;3.93;60.01;92349.78;5092727;28;20192;-81
2021/12/20 08:56:20;;;;;;;11.27;10.77;;;;;;;4.33;59.56;92352.69;5092063;28;20229;-80
2021/12/20 08:58:45;;;;;;;11.47;10.97;;;;;;;3.99;59.42;92351.38;5091962;28;20189;-81
2021/12/20 09:01:12;;;;;;;13.80;13.27;;;;;;;3.80;58.45;92363.06;5081971;28;20255;-80
2021/12/20 09:03:38;;;;;;;10.07;9.63;;;;;;;3.83;58.27;92349.66;5072601;28;20182;-80
2021/12/20 09:06:04;;;;;;;12.07;11.57;;;;;;;3.87;59.17;92342.22;5071247;28;20335;-81
2021/12/20 09:08:30;;;;;;;10.80;10.40;;;;;;;3.84;59.63;92338.34;5072138;28;20197;-80
2021/12/20 09:10:56;;;;;;;12.33;11.63;;;;;;;4.03;59.33;92325.84;5070603;28;20248;-80
2021/12/20 09:13:22;;;;;;;10.70;10.20;;;;;;;4.03;60.87;92354.25;5072365;28;20194;-79
2021/12/20 09:15:47;;;;;;;11.93;11.43;;;;;;;3.90;59.15;92345.09;5078355;28;20216;-81
2021/12/20 09:18:13;;;;;;;11.67;11.17;;;;;;;4.19;57.56;92356.72;5092238;28;20224;-80
2021/12/20 09:20:39;;;;;;;10.50;10.00;;;;;;;4.08;58.57;92323.28;5092492;28;20231;-82
2021/12/20 09:23:07;;;;;;;11.37;10.97;;;;;;;4.39;58.56;92356.13;5092773;28;20184;-80
2021/12/20 09:25:36;;;;;;;12.03;11.53;;;;;;;3.89;58.56;92348.69;5090491;28;20232;-81
2021/12/20 09:28:04;;;;;;;10.07;9.47;;;;;;;3.89;58.41;92330.63;5092657;28;20231;-83
2021/12/20 09:30:31;;;;;;;10.53;10.03;;;;;;;4.22;57.32;92345.88;5091827;28;20224;-81
2021/12/20 09:32:57;;;;;;;10.43;9.73;;;;;;;4.38;57.46;92357.13;5091537;28;20208;-82
2021/12/20 09:35:23;;;;;;;10.53;10.07;;;;;;;4.46;57.58;92357.47;5124090;28;20228;-82
2021/12/20 09:37:51;;;;;;;11.97;11.27;;;;;;;4.47;58.20;92365.97;5093004;28;20253;-81
2021/12/20 09:40:20;;;;;;;9.60;8.90;;;;;;;4.64;59.54;92376.94;5092313;28;20230;-81
2021/12/20 09:42:53;;;;;;;10.03;9.63;;;;;;;4.16;58.94;92341.72;5092077;28;20196;-80
2021/12/20 09:45:23;;;;;;;10.10;9.60;;;;;;;4.41;59.58;92372.91;5091455;28;20228;-80
2021/12/20 09:47:50;;;;;;;11.57;10.90;;;;;;;4.30;59.05;92384.19;5092149;28;20176;-80
2021/12/20 09:50:17;;;;;;;10.20;9.60;;;;;;;4.54;62.27;92375.09;5090544;28;20252;-81
2021/12/20 09:52:43;;;;;;;10.30;9.63;;;;;;;4.81;58.59;92380.16;5123645;27;20715;-81
2021/12/20 09:55:10;;;;;;;10.37;9.67;;;;;;;4.81;58.12;92349.94;5089818;28;20184;-83
2021/12/20 09:57:37;;;;;;;9.97;9.47;;;;;;;4.75;57.59;92381.16;5091036;28;20177;-79
2021/12/20 10:00:10;;;;;;;10.57;10.07;;;;;;;4.85;58.57;92371.69;5091541;28;20200;-80
2021/12/20 10:02:36;;;;;;;11.67;11.07;;;;;;;4.91;59.00;92365.50;5091424;28;20201;-77
2021/12/20 10:05:02;;;;;;;11.47;10.87;;;;;;;4.28;58.44;92375.91;5091016;28;20192;-79
2021/12/20 10:07:29;;;;;;;10.90;10.10;;;;;;;4.57;58.52;92322.91;5091448;28;20244;-81
2021/12/20 10:09:54;;;;;;;10.63;10.03;;;;;;;4.42;58.59;92335.69;5092040;28;20188;-81
2021/12/20 10:12:27;;;;;;;9.90;9.47;;;;;;;4.55;58.79;92365.50;5091110;28;20220;-84
2021/12/20 10:14:57;;;;;;;9.40;8.93;;;;;;;4.45;61.79;92352.53;5090136;28;20228;-82
2021/12/20 10:17:26;;;;;;;10.53;10.03;;;;;;;4.52;59.35;92350.50;5090784;28;20205;-82
2021/12/20 10:19:53;;;;;;;10.60;10.10;;;;;;;4.49;59.79;92359.53;5091246;28;20204;-81
2021/12/20 10:22:25;;;;;;;11.33;10.63;;;;;;;4.53;60.09;92363.19;5090229;28;20208;-79
2021/12/20 10:24:51;;;;;;;10.60;10.10;;;;;;;4.40;60.39;92368.78;5091046;28;20193;-81
2021/12/20 10:27:34;;;;;;;11.53;11.00;;;;;;;4.17;61.45;92345.06;5089587;28;20197;-81
2021/12/20 10:30:19;;;;;;;10.93;10.33;;;;;;;4.06;61.50;92346.78;5122140;28;20197;-83
2021/12/20 10:32:45;;;;;;;11.00;10.37;;;;;;;4.06;61.70;92367.44;5071258;28;20216;-83
2021/12/20 10:35:26;;;;;;;10.60;10.00;;;;;;;3.77;62.25;92365.34;5071096;28;20217;-78
2021/12/20 10:37:58;;;;;;;10.63;10.10;;;;;;;3.74;62.72;92353.72;5066900;28;20198;-77
2021/12/20 10:40:24;;;;;;;12.80;12.20;;;;;;;3.58;62.39;92346.81;5066104;28;20221;-76
2021/12/20 10:42:50;;;;;;;10.53;10.13;;;;;;;3.81;61.54;92344.00;5069584;28;20225;-76
2021/12/20 10:45:19;;;;;;;10.77;10.20;;;;;;;6.73;63.73;92353.81;5068758;28;21619;-77
2021/12/20 10:47:46;;;;;;;10.07;9.57;;;;;;;6.12;72.88;92345.25;5069281;28;20176;-77
2021/12/20 10:50:24;;;;;;;10.87;10.27;;;;;;;4.71;60.46;92349.88;5070095;28;20201;-74
2021/12/20 10:52:50;;;;;;;9.87;9.43;;;;;;;3.93;62.83;92342.03;5089340;28;20211;-74
2021/12/20 10:55:39;;;;;;;12.83;12.20;;;;;;;4.05;62.44;92365.09;5086826;28;20237;-74
2021/12/20 10:58:20;;;;;;;11.07;10.37;;;;;;;4.08;63.12;92355.06;5085927;28;20244;-74
2021/12/20 11:04:04;;;;;;;11.50;10.83;;;;;;;3.98;65.17;92352.41;5088847;28;20230;-75
2021/12/20 11:09:15;;;;;;;10.90;10.20;;;;;;;3.44;64.29;92347.47;5089154;28;20188;-80
2021/12/20 11:11:45;;;;;;;10.30;9.87;;;;;;;3.58;64.29;92349.41;5074316;28;20251;-80
2021/12/20 11:14:11;;;;;;;9.63;9.23;;;;;;;3.33;64.46;92335.47;5069073;28;21520;-83
2021/12/20 11:16:49;;;;;;;9.13;8.73;;;;;;;3.49;65.45;92360.44;5069032;28;20237;-82
2021/12/20 11:19:35;;;;;;;11.03;10.43;;;;;;;3.37;64.68;92342.47;5067339;28;20412;-82
2021/12/20 11:22:04;;;;;;;10.93;10.43;;;;;;;3.40;66.20;92360.06;5069343;28;20285;-83
2021/12/20 11:24:34;;;;;;;10.53;10.00;;;;;;;3.31;66.93;92359.69;5070010;28;20193;-80
2021/12/20 11:27:01;;;;;;;10.90;10.20;;;;;;;3.40;66.56;92372.97;5084668;28;20254;-83
2021/12/20 11:29:27;;;;;;;11.67;10.87;;;;;;;3.36;67.62;92371.09;5087846;28;20207;-82
2021/12/20 11:31:54;;;;;;;10.83;10.33;;;;;;;3.22;67.32;92371.44;5088402;28;20240;-84
2021/12/20 11:34:20;;;;;;;11.40;10.70;;;;;;;2.94;67.43;92353.56;5088696;28;20193;-81
2021/12/20 11:36:46;;;;;;;12.13;11.53;;;;;;;3.23;67.89;92354.19;5074290;28;20256;-82
2021/12/20 11:39:11;;;;;;;10.50;9.90;;;;;;;3.18;66.56;92330.91;5069525;28;20197;-82
2021/12/20 11:41:37;;;;;;;10.63;10.03;;;;;;;3.29;65.61;92353.22;5067974;28;20224;-83